createdAt,value
2022-12-27T00:02:36.993Z,80.79
2022-12-27T00:06:39.356Z,81.30
2022-12-27T00:10:41.452Z,81.43
2022-12-27T00:14:43.252Z,81.64
2022-12-27T00:18:45.799Z,81.66
2022-12-27T00:22:47.582Z,82.05
2022-12-27T00:26:49.274Z,81.92
2022-12-27T00:31:01.594Z,82.15
2022-12-27T00:35:03.884Z,82.44
2022-12-27T00:39:05.799Z,83.10
2022-12-27T00:43:08.066Z,83.54
2022-12-27T00:47:10.627Z,83.41
2022-12-27T00:51:21.381Z,83.22
2022-12-27T00:55:23.186Z,82.68
2022-12-27T00:59:24.991Z,81.89
2022-12-27T01:03:26.796Z,81.54
2022-12-27T01:07:28.731Z,79.85
2022-12-27T01:11:30.995Z,80.60
2022-12-27T01:15:33.094Z,80.51
2022-12-27T01:19:38.809Z,80.81
2022-12-27T01:23:41.683Z,80.88
2022-12-27T01:27:43.426Z,80.51
2022-12-27T01:31:45.534Z,80.64
2022-12-27T01:35:47.962Z,81.02
2022-12-27T01:39:49.639Z,81.10
2022-12-27T01:43:51.637Z,81.85
2022-12-27T01:47:59.034Z,81.96
2022-12-27T01:52:00.831Z,82.31
2022-12-27T01:56:28.696Z,82.11
2022-12-27T02:00:30.545Z,81.86
2022-12-27T02:04:33.643Z,82.16
2022-12-27T02:08:38.002Z,82.21
2022-12-27T02:12:39.707Z,82.25
2022-12-27T02:16:41.480Z,81.93
2022-12-27T02:21:01.076Z,81.89
2022-12-27T02:25:22.328Z,82.39
2022-12-27T02:29:40.777Z,82.15
2022-12-27T02:33:47.663Z,82.47
2022-12-27T02:37:58.358Z,82.59
2022-12-27T02:42:20.338Z,82.50
2022-12-27T02:46:43.826Z,82.60
2022-12-27T02:51:19.925Z,82.32
2022-12-27T02:55:36.103Z,82.12
2022-12-27T03:00:20.743Z,81.72
2022-12-27T03:04:46.376Z,81.91
2022-12-27T03:09:13.352Z,82.15
2022-12-27T03:13:46.430Z,81.78
2022-12-27T03:18:03.142Z,81.60
2022-12-27T03:22:25.248Z,81.79
2022-12-27T03:26:31.602Z,81.46
2022-12-27T03:30:55.015Z,80.95
2022-12-27T03:35:08.628Z,81.44
2022-12-27T03:39:31.587Z,81.55
2022-12-27T03:43:35.814Z,81.17
2022-12-27T03:47:53.276Z,81.67
2022-12-27T03:52:07.822Z,81.39
2022-12-27T03:56:11.250Z,80.94
2022-12-27T04:00:13.597Z,81.05
2022-12-27T04:04:15.306Z,80.88
2022-12-27T04:08:35.611Z,80.82
2022-12-27T04:12:56.548Z,80.35
2022-12-27T04:17:16.879Z,80.95
2022-12-27T04:21:37.147Z,81.06
2022-12-27T04:25:58.051Z,80.78
2022-12-27T04:30:18.325Z,80.71
2022-12-27T04:34:39.037Z,80.72
2022-12-27T04:38:40.794Z,80.65
2022-12-27T04:43:01.731Z,80.80
2022-12-27T04:47:22.033Z,80.68
2022-12-27T04:51:42.361Z,81.11
2022-12-27T04:55:44.169Z,81.10
2022-12-27T05:00:04.506Z,81.60
2022-12-27T05:04:06.275Z,81.70
2022-12-27T05:08:28.561Z,81.79
2022-12-27T05:12:48.939Z,82.10
2022-12-27T05:16:51.026Z,81.60
2022-12-27T05:20:52.808Z,81.71
2022-12-27T05:25:13.230Z,81.72
2022-12-27T05:29:15.470Z,82.18
2022-12-27T05:33:17.215Z,82.02
2022-12-27T05:37:18.901Z,81.88
2022-12-27T05:41:20.622Z,82.43
2022-12-27T05:45:22.325Z,82.40
2022-12-27T05:49:24.227Z,82.39
2022-12-27T05:53:25.985Z,82.67
2022-12-27T05:57:27.865Z,82.91
2022-12-27T06:01:29.777Z,82.56
2022-12-27T06:05:31.770Z,82.61
2022-12-27T06:09:33.492Z,83.04
2022-12-27T06:13:36.343Z,82.84
2022-12-27T06:17:38.067Z,83.16
2022-12-27T06:21:39.873Z,83.10
2022-12-27T06:25:41.566Z,83.85
2022-12-27T06:29:43.339Z,83.76
2022-12-27T06:33:47.173Z,83.54
2022-12-27T06:37:49.010Z,83.97
2022-12-27T06:41:50.942Z,83.97
2022-12-27T06:46:00.619Z,83.67
2022-12-27T06:50:03.469Z,83.95
2022-12-27T06:54:05.357Z,83.76
2022-12-27T06:58:07.106Z,83.89
2022-12-27T07:02:10.546Z,83.84
2022-12-27T07:06:12.481Z,83.66
2022-12-27T07:10:14.350Z,83.67
2022-12-27T07:14:16.095Z,83.55
2022-12-27T07:18:17.831Z,83.55
2022-12-27T07:22:19.535Z,84.19
2022-12-27T07:26:30.323Z,84.12
2022-12-27T07:30:34.997Z,84.05
2022-12-27T07:34:36.792Z,84.49
2022-12-27T07:38:38.546Z,84.78
2022-12-27T07:42:40.331Z,84.94
2022-12-27T07:46:43.149Z,85.10
2022-12-27T07:50:53.740Z,84.95
2022-12-27T07:54:55.422Z,85.24
2022-12-27T07:58:59.891Z,85.91
2022-12-27T08:03:03.776Z,86.17
2022-12-27T08:07:14.931Z,86.31
2022-12-27T08:11:16.701Z,85.93
2022-12-27T08:15:18.432Z,86.12
2022-12-27T08:19:20.974Z,86.48
2022-12-27T08:23:22.718Z,86.18
2022-12-27T08:27:25.388Z,86.57
2022-12-27T08:31:27.167Z,86.38
2022-12-27T08:35:52.028Z,86.94
2022-12-27T08:39:56.473Z,86.90
2022-12-27T08:44:00.942Z,87.10
2022-12-27T08:48:04.047Z,87.08
2022-12-27T08:52:05.912Z,87.45
2022-12-27T08:56:07.949Z,87.77
2022-12-27T09:00:10.686Z,87.92
2022-12-27T09:04:12.471Z,88.32
2022-12-27T09:08:14.165Z,88.30
2022-12-27T09:12:15.958Z,88.22
2022-12-27T09:16:24.271Z,88.35
2022-12-27T09:20:25.955Z,88.81
2022-12-27T09:24:27.684Z,88.61
2022-12-27T09:28:29.474Z,89.00
2022-12-27T09:32:31.673Z,89.04
2022-12-27T09:36:33.444Z,88.74
2022-12-27T09:40:35.273Z,88.84
2022-12-27T09:44:51.461Z,89.31
2022-12-27T09:48:55.939Z,89.35
2022-12-27T09:53:17.312Z,89.39
2022-12-27T09:57:27.844Z,89.51
2022-12-27T10:01:34.039Z,89.03
2022-12-27T10:05:38.168Z,89.14
2022-12-27T10:09:39.961Z,89.04
2022-12-27T10:13:44.605Z,88.85
2022-12-27T10:17:57.311Z,89.06
2022-12-27T10:22:10.863Z,88.96
2022-12-27T10:26:18.417Z,89.11
2022-12-27T10:30:22.645Z,88.83
2022-12-27T10:34:24.845Z,89.10
2022-12-27T10:38:33.375Z,88.70
2022-12-27T10:42:56.715Z,88.78
2022-12-27T10:47:00.755Z,89.04
2022-12-27T10:51:09.346Z,89.10
2022-12-27T10:55:35.054Z,88.95
2022-12-27T10:59:36.829Z,88.93
2022-12-27T11:03:38.553Z,89.61
2022-12-27T11:07:40.846Z,89.38
2022-12-27T11:11:42.589Z,89.55
2022-12-27T11:15:58.265Z,89.35
2022-12-27T11:20:09.125Z,89.58
2022-12-27T11:24:15.532Z,89.28
2022-12-27T11:28:31.965Z,89.07
2022-12-27T11:32:33.820Z,89.05
2022-12-27T11:36:40.809Z,89.11
2022-12-27T11:40:42.776Z,89.51
2022-12-27T11:44:52.894Z,89.09
2022-12-27T11:48:59.348Z,89.26
2022-12-27T11:53:28.398Z,89.21
2022-12-27T11:57:35.865Z,89.63
2022-12-27T12:01:57.375Z,89.43
2022-12-27T12:06:24.750Z,89.88
2022-12-27T12:10:46.807Z,89.88
2022-12-27T12:15:24.215Z,89.78
2022-12-27T12:19:31.946Z,89.68
2022-12-27T12:24:07.938Z,89.82
2022-12-27T12:28:56.426Z,90.12
2022-12-27T12:33:20.594Z,89.88
2022-12-27T12:37:47.548Z,90.02
2022-12-27T12:42:09.573Z,90.02
2022-12-27T12:46:32.359Z,90.05
2022-12-27T12:50:58.996Z,90.24
2022-12-27T12:55:12.936Z,90.11
2022-12-27T12:59:45.838Z,90.38
2022-12-27T13:04:02.266Z,89.84
2022-12-27T13:08:31.998Z,90.12
2022-12-27T13:12:52.477Z,90.43
2022-12-27T13:17:19.407Z,90.32
2022-12-27T13:21:45.505Z,89.99
2022-12-27T13:26:15.091Z,90.16
2022-12-27T13:30:20.998Z,90.11
2022-12-27T13:34:49.095Z,90.23
2022-12-27T13:39:18.258Z,90.41
2022-12-27T13:43:32.341Z,90.39
2022-12-27T13:47:51.488Z,90.63
2022-12-27T13:52:00.475Z,90.46
2022-12-27T14:01:04.267Z,90.63
2022-12-27T14:05:38.288Z,90.56
2022-12-27T14:10:21.359Z,90.84
2022-12-27T14:14:26.771Z,90.87
2022-12-27T14:18:40.762Z,90.58
2022-12-27T14:22:54.966Z,90.93
2022-12-27T14:27:08.693Z,90.75
2022-12-27T14:31:34.513Z,90.45
2022-12-27T14:36:11.595Z,90.64
2022-12-27T14:40:35.186Z,90.48
2022-12-27T14:44:58.724Z,90.80
2022-12-27T14:49:42.567Z,90.53
2022-12-27T14:54:11.722Z,90.88
2022-12-27T14:58:36.528Z,90.91
2022-12-27T15:03:12.582Z,90.98
2022-12-27T15:07:39.676Z,91.40
2022-12-27T15:12:05.997Z,91.61
2022-12-27T15:16:16.931Z,91.21
2022-12-27T15:20:25.140Z,91.50
2022-12-27T15:25:01.399Z,91.73
2022-12-27T15:29:03.119Z,91.76
2022-12-27T15:33:04.978Z,91.97
2022-12-27T15:37:27.021Z,91.73
2022-12-27T15:41:34.862Z,92.34
2022-12-27T15:45:48.782Z,92.05
2022-12-27T15:50:28.022Z,92.31
2022-12-27T15:54:53.507Z,91.77
2022-12-27T15:59:33.352Z,92.21
2022-12-27T16:03:38.001Z,91.95
2022-12-27T16:07:46.243Z,91.54
2022-12-27T16:12:06.043Z,91.80
2022-12-27T16:16:33.477Z,91.84
2022-12-27T16:20:35.440Z,91.59
2022-12-27T16:24:41.961Z,91.39
2022-12-27T16:28:55.703Z,92.07
2022-12-27T16:32:57.505Z,91.74
2022-12-27T16:37:00.780Z,91.67
2022-12-27T16:41:23.979Z,91.77
2022-12-27T16:45:44.187Z,91.68
2022-12-27T16:50:23.383Z,92.02
2022-12-27T16:54:34.198Z,91.90
2022-12-27T16:58:38.243Z,92.35
2022-12-27T17:02:47.700Z,92.09
2022-12-27T17:06:55.711Z,92.04
2022-12-27T17:11:03.340Z,91.73
2022-12-27T17:15:06.150Z,92.07
2022-12-27T17:19:18.971Z,91.70
2022-12-27T17:23:20.986Z,91.64
2022-12-27T17:27:50.424Z,91.50
2022-12-27T17:32:29.285Z,91.56
2022-12-27T17:36:40.110Z,91.40
2022-12-27T17:40:57.171Z,91.36
2022-12-27T17:45:36.230Z,91.46
2022-12-27T17:49:38.615Z,91.50
2022-12-27T17:54:07.205Z,91.15
2022-12-27T17:58:12.130Z,91.35
2022-12-27T18:02:32.291Z,91.40
2022-12-27T18:06:37.192Z,91.30
2022-12-27T18:10:41.636Z,91.33
2022-12-27T18:14:44.320Z,91.03
2022-12-27T18:18:48.795Z,90.74
2022-12-27T18:22:50.549Z,90.48
2022-12-27T18:27:00.901Z,90.74
2022-12-27T18:31:24.105Z,90.93
2022-12-27T18:35:26.519Z,90.67
2022-12-27T18:39:32.862Z,90.72
2022-12-27T18:43:36.228Z,90.35
2022-12-27T18:47:45.936Z,90.76
2022-12-27T18:51:47.755Z,90.40
2022-12-27T18:56:02.095Z,90.48
2022-12-27T19:00:18.095Z,90.47
2022-12-27T19:04:37.740Z,90.21
2022-12-27T19:08:44.304Z,90.59
2022-12-27T19:12:46.776Z,90.67
2022-12-27T19:16:56.202Z,90.48
2022-12-27T19:21:03.076Z,90.13
2022-12-27T19:25:19.256Z,90.49
2022-12-27T19:29:27.353Z,90.01
2022-12-27T19:33:33.021Z,90.04
2022-12-27T19:37:35.808Z,89.64
2022-12-27T19:41:39.240Z,89.69
2022-12-27T19:45:41.079Z,89.64
2022-12-27T19:49:44.482Z,89.43
2022-12-27T19:53:57.530Z,89.44
2022-12-27T19:57:59.512Z,89.43
2022-12-27T20:02:01.628Z,89.30
2022-12-27T20:06:12.778Z,88.75
2022-12-27T20:10:17.002Z,88.85
2022-12-27T20:14:18.817Z,88.97
2022-12-27T20:18:21.617Z,88.50
2022-12-27T20:22:23.324Z,87.92
2022-12-27T20:26:25.685Z,88.41
2022-12-27T20:30:27.555Z,87.88
2022-12-27T20:34:29.442Z,87.53
2022-12-27T20:38:31.650Z,87.50
2022-12-27T20:42:33.823Z,86.89
2022-12-27T20:46:35.506Z,87.10
2022-12-27T20:50:38.716Z,86.66
2022-12-27T20:54:40.614Z,86.93
2022-12-27T20:58:42.722Z,86.88
2022-12-27T21:02:45.055Z,86.65
2022-12-27T21:06:46.842Z,86.44
2022-12-27T21:10:48.638Z,86.21
2022-12-27T21:14:50.308Z,86.21
2022-12-27T21:18:52.471Z,86.35
2022-12-27T21:22:54.240Z,86.17
2022-12-27T21:26:56.696Z,86.24
2022-12-27T21:30:59.062Z,86.18
2022-12-27T21:35:00.904Z,86.16
2022-12-27T21:39:03.541Z,85.84
2022-12-27T21:43:05.424Z,85.68
2022-12-27T21:47:07.488Z,86.12
2022-12-27T21:51:19.182Z,86.46
2022-12-27T21:55:20.919Z,87.00
2022-12-27T21:59:22.737Z,87.53
2022-12-27T22:03:24.589Z,87.93
2022-12-27T22:07:26.468Z,87.91
2022-12-27T22:11:30.422Z,89.00
2022-12-27T22:15:32.163Z,89.67
2022-12-27T22:19:34.109Z,89.50
2022-12-27T22:23:39.604Z,90.17
2022-12-27T22:27:41.278Z,89.81
2022-12-27T22:31:43.119Z,90.17
2022-12-27T22:35:44.915Z,90.33
2022-12-27T22:39:46.638Z,90.35
2022-12-27T22:43:51.368Z,90.83
2022-12-27T22:47:53.620Z,90.65
2022-12-27T22:51:55.427Z,90.92
2022-12-27T22:55:57.258Z,90.92
2022-12-27T22:59:58.978Z,91.17
2022-12-27T23:04:04.325Z,90.97
2022-12-27T23:08:07.127Z,91.55
2022-12-27T23:12:09.001Z,91.71
2022-12-27T23:16:11.108Z,92.11
2022-12-27T23:20:12.936Z,92.03
2022-12-27T23:24:15.267Z,92.04
2022-12-27T23:28:17.195Z,92.44
2022-12-27T23:32:18.891Z,92.60
2022-12-27T23:36:21.459Z,92.36
2022-12-27T23:40:23.177Z,92.90
2022-12-27T23:44:33.001Z,92.89
2022-12-27T23:48:36.853Z,93.24
2022-12-27T23:52:38.568Z,92.97
2022-12-27T23:56:40.494Z,93.12
